createdAt,value
2019-04-28T00:01:02.854Z,13.97
2019-04-28T00:02:15.733Z,13.97
2019-04-28T00:03:24.249Z,13.99
2019-04-28T00:04:32.338Z,14.00
2019-04-28T00:05:41.494Z,14.01
2019-04-28T00:06:51.544Z,14.02
2019-04-28T00:08:01.169Z,14.02
2019-04-28T00:09:11.479Z,14.03
2019-04-28T00:10:20.948Z,14.02
2019-04-28T00:11:29.070Z,14.02
2019-04-28T00:12:41.285Z,14.01
2019-04-28T00:13:49.298Z,13.99
2019-04-28T00:14:57.352Z,13.99
2019-04-28T00:16:07.130Z,13.95
2019-04-28T00:17:15.057Z,13.95
2019-04-28T00:18:23.631Z,13.94
2019-04-28T00:19:31.635Z,13.94
2019-04-28T00:20:57.189Z,13.92
2019-04-28T00:22:12.805Z,13.91
2019-04-28T00:23:21.672Z,13.92
2019-04-28T00:24:43.543Z,13.91
2019-04-28T00:26:08.363Z,13.87
2019-04-28T00:27:16.732Z,13.88
2019-04-28T00:28:24.624Z,13.84
2019-04-28T00:29:40.257Z,13.85
2019-04-28T00:30:42.356Z,13.84
2019-04-28T00:31:51.784Z,13.83
2019-04-28T00:33:01.791Z,13.82
2019-04-28T00:34:11.478Z,13.80
2019-04-28T00:35:19.554Z,13.82
2019-04-28T00:36:27.364Z,13.82
2019-04-28T00:37:36.371Z,13.80
2019-04-28T00:38:44.447Z,13.79
2019-04-28T00:39:52.561Z,13.80
2019-04-28T00:41:02.407Z,13.78
2019-04-28T00:42:11.777Z,13.77
2019-04-28T00:43:21.724Z,13.76
2019-04-28T00:44:31.308Z,13.77
2019-04-28T00:45:41.237Z,13.76
2019-04-28T00:46:48.860Z,13.73
2019-04-28T00:47:56.966Z,13.75
2019-04-28T00:49:05.204Z,13.73
2019-04-28T00:50:13.707Z,13.71
2019-04-28T00:51:21.973Z,13.73
2019-04-28T00:52:31.811Z,13.72
2019-04-28T00:53:40.846Z,13.71
2019-04-28T00:54:50.157Z,13.73
2019-04-28T00:55:58.214Z,13.71
2019-04-28T00:57:06.403Z,13.72
2019-04-28T00:58:14.667Z,13.72
2019-04-28T00:59:22.437Z,13.73
2019-04-28T01:00:31.980Z,13.74
2019-04-28T01:01:42.856Z,13.75
2019-04-28T01:02:51.085Z,13.76
2019-04-28T01:03:59.076Z,13.74
2019-04-28T01:05:11.363Z,13.75
2019-04-28T01:06:19.610Z,13.73
2019-04-28T01:07:27.646Z,13.73
2019-04-28T01:08:35.768Z,13.75
2019-04-28T01:09:43.682Z,13.76
2019-04-28T01:10:52.035Z,13.76
2019-04-28T01:12:01.816Z,13.76
2019-04-28T01:13:09.557Z,13.75
2019-04-28T01:14:17.583Z,13.77
2019-04-28T01:15:33.294Z,13.74
2019-04-28T01:16:49.824Z,13.73
2019-04-28T01:18:00.823Z,13.72
2019-04-28T01:19:10.812Z,13.68
2019-04-28T01:20:21.364Z,13.66
2019-04-28T01:21:47.124Z,13.64
2019-04-28T01:22:55.148Z,13.63
2019-04-28T01:24:03.216Z,13.60
2019-04-28T01:25:11.347Z,13.61
2019-04-28T01:26:20.002Z,13.61
2019-04-28T01:27:27.812Z,13.57
2019-04-28T01:28:35.825Z,13.60
2019-04-28T01:29:43.735Z,13.59
2019-04-28T01:30:56.393Z,13.58
2019-04-28T01:32:23.177Z,13.59
2019-04-28T01:33:50.174Z,13.59
2019-04-28T01:34:59.668Z,13.58
2019-04-28T01:36:07.910Z,13.56
2019-04-28T01:37:15.876Z,13.56
2019-04-28T01:38:23.740Z,13.55
2019-04-28T01:39:31.964Z,13.54
2019-04-28T01:40:41.373Z,13.55
2019-04-28T01:41:49.671Z,13.55
2019-04-28T01:42:59.340Z,13.55
2019-04-28T01:44:07.766Z,13.54
2019-04-28T01:45:16.128Z,13.56
2019-04-28T01:46:24.102Z,13.57
2019-04-28T01:47:32.151Z,13.57
2019-04-28T01:48:40.380Z,13.56
2019-04-28T01:49:50.056Z,13.57
2019-04-28T01:50:59.748Z,13.54
2019-04-28T01:52:08.035Z,13.53
2019-04-28T01:53:16.289Z,13.52
2019-04-28T01:54:24.131Z,13.55
2019-04-28T01:55:32.112Z,13.55
2019-04-28T01:56:40.472Z,13.55
2019-04-28T01:57:49.778Z,13.56
2019-04-28T01:58:58.020Z,13.56
2019-04-28T02:00:21.931Z,13.55
2019-04-28T02:01:20.902Z,13.55
2019-04-28T02:02:30.003Z,13.57
2019-04-28T02:03:40.304Z,13.60
2019-04-28T02:04:49.927Z,13.62
2019-04-28T02:05:59.985Z,13.64
2019-04-28T02:07:08.346Z,13.67
2019-04-28T02:08:16.440Z,13.70
2019-04-28T02:09:24.549Z,13.72
2019-04-28T02:10:32.334Z,13.76
2019-04-28T02:11:41.226Z,13.78
2019-04-28T02:12:50.339Z,13.79
2019-04-28T02:13:59.693Z,13.77
2019-04-28T02:15:10.499Z,13.76
2019-04-28T02:16:19.466Z,13.77
2019-04-28T02:17:27.634Z,13.76
2019-04-28T02:18:35.492Z,13.76
2019-04-28T02:19:43.756Z,13.75
2019-04-28T02:20:53.320Z,13.73
2019-04-28T02:22:02.939Z,13.75
2019-04-28T02:23:12.655Z,13.76
2019-04-28T02:24:31.540Z,13.74
2019-04-28T02:25:39.945Z,13.78
2019-04-28T02:26:50.365Z,13.77
2019-04-28T02:27:59.595Z,13.77
2019-04-28T02:29:07.996Z,13.75
2019-04-28T02:30:17.117Z,13.76
2019-04-28T02:31:25.003Z,13.76
2019-04-28T02:32:32.938Z,13.76
2019-04-28T02:33:41.085Z,13.77
2019-04-28T02:34:50.694Z,13.77
2019-04-28T02:36:01.495Z,13.78
2019-04-28T02:37:11.350Z,13.80
2019-04-28T02:38:20.833Z,13.81
2019-04-28T02:39:30.866Z,13.83
2019-04-28T02:40:40.398Z,13.88
2019-04-28T02:41:47.651Z,13.87
2019-04-28T02:42:55.666Z,13.88
2019-04-28T02:44:03.533Z,13.88
2019-04-28T02:45:15.976Z,13.88
2019-04-28T02:46:24.158Z,13.86
2019-04-28T02:47:34.153Z,13.84
2019-04-28T02:48:41.554Z,13.85
2019-04-28T02:49:54.076Z,13.82
2019-04-28T02:51:12.266Z,13.79
2019-04-28T02:52:31.189Z,13.78
2019-04-28T02:53:40.980Z,13.76
2019-04-28T02:54:50.736Z,13.74
2019-04-28T02:56:00.722Z,13.72
2019-04-28T02:57:10.778Z,13.72
2019-04-28T02:58:22.126Z,13.72
2019-04-28T02:59:30.368Z,13.70
2019-04-28T03:00:37.509Z,13.69
2019-04-28T03:01:45.997Z,13.68
2019-04-28T03:02:54.105Z,13.65
2019-04-28T03:04:02.388Z,13.64
2019-04-28T03:05:11.640Z,13.64
2019-04-28T03:06:20.773Z,13.64
2019-04-28T03:07:31.209Z,13.62
2019-04-28T03:08:40.433Z,13.60
2019-04-28T03:09:48.293Z,13.60
2019-04-28T03:10:56.506Z,13.61
2019-04-28T03:12:04.848Z,13.58
2019-04-28T03:13:13.408Z,13.57
2019-04-28T03:14:21.515Z,13.55
2019-04-28T03:15:30.445Z,13.57
2019-04-28T03:16:40.988Z,13.56
2019-04-28T03:17:52.551Z,13.56
2019-04-28T03:18:57.909Z,13.54
2019-04-28T03:20:07.167Z,13.53
2019-04-28T03:21:15.534Z,13.52
2019-04-28T03:22:23.485Z,13.53
2019-04-28T03:23:31.438Z,13.49
2019-04-28T03:24:41.335Z,13.50
2019-04-28T03:25:54.601Z,13.50
2019-04-28T03:27:17.434Z,13.51
2019-04-28T03:28:26.834Z,13.50
2019-04-28T03:29:41.909Z,13.50
2019-04-28T03:31:36.781Z,13.49
2019-04-28T03:32:45.564Z,13.48
2019-04-28T03:33:48.708Z,13.47
2019-04-28T03:34:54.155Z,13.48
2019-04-28T03:36:07.493Z,13.50
2019-04-28T03:37:12.279Z,13.51
2019-04-28T03:38:21.382Z,13.51
2019-04-28T03:39:30.273Z,13.51
2019-04-28T03:40:41.225Z,13.51
2019-04-28T03:41:50.205Z,13.52
2019-04-28T03:43:00.327Z,13.52
2019-04-28T03:44:07.838Z,13.52
2019-04-28T03:45:20.934Z,13.52
2019-04-28T03:46:32.808Z,13.55
2019-04-28T03:47:41.044Z,13.51
2019-04-28T03:48:50.894Z,13.50
2019-04-28T03:50:00.085Z,13.52
2019-04-28T03:51:10.789Z,13.52
2019-04-28T03:52:20.823Z,13.51
2019-04-28T03:53:27.659Z,13.52
2019-04-28T03:54:36.162Z,13.52
2019-04-28T03:55:44.083Z,13.49
2019-04-28T03:56:53.681Z,13.49
2019-04-28T03:58:01.917Z,13.47
2019-04-28T03:59:10.408Z,13.47
2019-04-28T04:00:18.592Z,13.46
2019-04-28T04:01:26.378Z,13.48
2019-04-28T04:02:34.783Z,13.47
2019-04-28T04:03:42.797Z,13.48
2019-04-28T04:04:52.607Z,13.48
2019-04-28T04:06:00.958Z,13.49
2019-04-28T04:07:11.066Z,13.50
2019-04-28T04:08:20.893Z,13.50
2019-04-28T04:09:31.189Z,13.51
2019-04-28T04:10:47.133Z,13.52
2019-04-28T04:12:13.227Z,13.54
2019-04-28T04:13:38.245Z,13.53
2019-04-28T04:14:50.573Z,13.53
2019-04-28T04:16:15.643Z,13.51
2019-04-28T04:17:30.538Z,13.51
2019-04-28T04:18:40.652Z,13.50
2019-04-28T04:19:50.343Z,13.51
2019-04-28T04:21:00.823Z,13.50
2019-04-28T04:22:10.160Z,13.49
2019-04-28T04:23:22.794Z,13.48
2019-04-28T04:24:30.532Z,13.48
2019-04-28T04:25:37.530Z,13.49
2019-04-28T04:26:45.566Z,13.48
2019-04-28T04:27:53.816Z,13.49
2019-04-28T04:29:02.017Z,13.52
2019-04-28T04:30:10.909Z,13.52
2019-04-28T04:31:19.998Z,13.53
2019-04-28T04:32:30.532Z,13.56
2019-04-28T04:33:40.735Z,13.58
2019-04-28T04:34:50.378Z,13.60
2019-04-28T04:35:57.640Z,13.61
2019-04-28T04:37:05.555Z,13.61
2019-04-28T04:38:13.711Z,13.62
2019-04-28T04:39:21.434Z,13.61
2019-04-28T04:40:31.743Z,13.62
2019-04-28T04:41:40.879Z,13.62
2019-04-28T04:42:50.205Z,13.65
2019-04-28T04:44:00.774Z,13.66
2019-04-28T04:45:10.549Z,13.68
2019-04-28T04:46:22.689Z,13.69
2019-04-28T04:47:32.909Z,13.70
2019-04-28T04:48:40.876Z,13.73
2019-04-28T04:49:50.479Z,13.77
2019-04-28T04:51:00.751Z,13.78
2019-04-28T04:52:10.510Z,13.77
2019-04-28T04:53:20.624Z,13.78
2019-04-28T04:54:30.248Z,13.77
2019-04-28T04:55:37.475Z,13.76
2019-04-28T04:56:45.722Z,13.77
2019-04-28T04:57:53.713Z,13.78
2019-04-28T04:59:02.781Z,13.79
2019-04-28T05:00:12.787Z,13.81
2019-04-28T05:01:40.494Z,13.83
2019-04-28T05:02:52.863Z,13.85
2019-04-28T05:04:05.061Z,13.87
2019-04-28T05:05:14.772Z,13.89
2019-04-28T05:06:35.997Z,13.91
2019-04-28T05:07:44.038Z,13.93
2019-04-28T05:08:52.048Z,13.95
2019-04-28T05:09:59.846Z,13.97
2019-04-28T05:11:07.692Z,13.98
2019-04-28T05:12:15.632Z,14.00
2019-04-28T05:13:23.443Z,14.01
2019-04-28T05:14:31.513Z,14.03
2019-04-28T05:15:40.099Z,14.04
2019-04-28T05:16:49.756Z,14.06
2019-04-28T05:17:57.595Z,14.10
2019-04-28T05:19:05.901Z,14.11
2019-04-28T05:20:14.057Z,14.11
2019-04-28T05:21:22.297Z,14.12
2019-04-28T05:22:32.124Z,14.13
2019-04-28T05:23:41.614Z,14.12
2019-04-28T05:24:54.265Z,14.12
2019-04-28T05:26:01.567Z,14.13
2019-04-28T05:27:10.304Z,14.14
2019-04-28T05:28:19.755Z,14.16
2019-04-28T05:29:28.264Z,14.16
2019-04-28T05:30:39.780Z,14.18
2019-04-28T05:31:45.999Z,14.19
2019-04-28T05:32:56.382Z,14.20
2019-04-28T05:34:04.187Z,14.22
2019-04-28T05:35:13.231Z,14.22
2019-04-28T05:36:21.334Z,14.22
2019-04-28T05:37:29.937Z,14.21
2019-04-28T05:38:38.137Z,14.21
2019-04-28T05:39:46.276Z,14.21
2019-04-28T05:40:54.247Z,14.21
2019-04-28T05:42:02.427Z,14.22
2019-04-28T05:43:10.715Z,14.23
2019-04-28T05:44:20.099Z,14.24
2019-04-28T05:45:32.241Z,14.24
2019-04-28T05:46:40.858Z,14.24
2019-04-28T05:47:50.182Z,14.26
2019-04-28T05:49:01.189Z,14.26
2019-04-28T05:50:10.973Z,14.27
2019-04-28T05:51:21.030Z,14.25
2019-04-28T05:52:33.615Z,14.23
2019-04-28T05:53:53.810Z,14.23
2019-04-28T05:55:20.346Z,14.25
2019-04-28T05:56:29.871Z,14.25
2019-04-28T05:57:39.826Z,14.26
2019-04-28T05:58:52.619Z,14.29
2019-04-28T06:00:03.364Z,14.31
2019-04-28T06:01:20.598Z,14.33
2019-04-28T06:02:36.086Z,14.33
2019-04-28T06:03:44.594Z,14.33
2019-04-28T06:04:52.589Z,14.32
2019-04-28T06:06:00.750Z,14.32
2019-04-28T06:07:13.419Z,14.31
2019-04-28T06:08:21.366Z,14.31
2019-04-28T06:09:31.005Z,14.32
2019-04-28T06:10:39.929Z,14.28
2019-04-28T06:11:49.584Z,14.27
2019-04-28T06:12:59.637Z,14.27
2019-04-28T06:14:09.781Z,14.28
2019-04-28T06:15:17.790Z,14.29
2019-04-28T06:16:26.017Z,14.32
2019-04-28T06:17:33.919Z,14.34
2019-04-28T06:18:42.155Z,14.35
2019-04-28T06:19:50.557Z,14.37
2019-04-28T06:20:59.128Z,14.37
2019-04-28T06:22:07.332Z,14.37
2019-04-28T06:23:15.320Z,14.39
2019-04-28T06:24:23.732Z,14.39
2019-04-28T06:25:31.785Z,14.38
2019-04-28T06:26:39.923Z,14.38
2019-04-28T06:27:48.015Z,14.38
2019-04-28T06:28:56.178Z,14.38
2019-04-28T06:30:05.655Z,14.37
2019-04-28T06:31:13.583Z,14.35
2019-04-28T06:32:21.545Z,14.37
2019-04-28T06:33:29.735Z,14.38
2019-04-28T06:34:37.696Z,14.39
2019-04-28T06:35:45.702Z,14.41
2019-04-28T06:36:54.019Z,14.40
2019-04-28T06:38:02.121Z,14.41
2019-04-28T06:39:10.521Z,14.43
2019-04-28T06:40:18.838Z,14.45
2019-04-28T06:41:27.284Z,14.45
2019-04-28T06:42:35.326Z,14.47
2019-04-28T06:43:43.317Z,14.50
2019-04-28T06:44:51.208Z,14.49
2019-04-28T06:45:58.979Z,14.51
2019-04-28T06:47:07.101Z,14.49
2019-04-28T06:48:14.988Z,14.48
2019-04-28T06:49:22.932Z,14.46
2019-04-28T06:50:30.998Z,14.46
2019-04-28T06:51:39.000Z,14.41
2019-04-28T06:52:47.072Z,14.39
2019-04-28T06:53:55.333Z,14.40
2019-04-28T06:55:03.204Z,14.37
2019-04-28T06:56:11.361Z,14.34
2019-04-28T06:57:19.260Z,14.32
2019-04-28T06:58:27.456Z,14.32
2019-04-28T06:59:35.450Z,14.30
2019-04-28T07:00:43.545Z,14.33
2019-04-28T07:01:51.572Z,14.35
2019-04-28T07:02:59.845Z,14.37
2019-04-28T07:04:07.887Z,14.34
2019-04-28T07:05:16.183Z,14.30
2019-04-28T07:06:24.241Z,14.28
2019-04-28T07:07:32.540Z,14.29
2019-04-28T07:08:40.629Z,14.26
2019-04-28T07:09:48.631Z,14.24
2019-04-28T07:10:56.538Z,14.21
2019-04-28T07:12:04.452Z,14.21
2019-04-28T07:13:12.606Z,14.22
2019-04-28T07:14:20.662Z,14.24
2019-04-28T07:15:28.608Z,14.25
2019-04-28T07:16:36.804Z,14.24
2019-04-28T07:17:44.672Z,14.24
2019-04-28T07:18:52.932Z,14.24
2019-04-28T07:20:18.911Z,14.24
2019-04-28T07:21:43.547Z,14.25
2019-04-28T07:22:51.689Z,14.27
2019-04-28T07:23:59.793Z,14.26
2019-04-28T07:25:08.252Z,14.25
2019-04-28T07:26:16.608Z,14.24
2019-04-28T07:27:24.615Z,14.23
2019-04-28T07:28:33.077Z,14.25
2019-04-28T07:29:41.191Z,14.24
2019-04-28T07:30:49.498Z,14.23
2019-04-28T07:31:57.503Z,14.22
2019-04-28T07:33:05.796Z,14.19
2019-04-28T07:34:14.206Z,14.17
2019-04-28T07:35:22.341Z,14.16
2019-04-28T07:36:30.642Z,14.11
2019-04-28T07:37:38.847Z,14.10
2019-04-28T07:38:46.873Z,14.07
2019-04-28T07:39:56.747Z,14.07
2019-04-28T07:41:04.712Z,14.10
2019-04-28T07:42:13.215Z,14.07
2019-04-28T07:43:21.072Z,14.07
2019-04-28T07:44:29.222Z,14.04
2019-04-28T07:45:37.326Z,14.05
2019-04-28T07:46:45.290Z,14.04
2019-04-28T07:47:53.612Z,14.03
2019-04-28T07:49:02.020Z,14.00
2019-04-28T07:50:10.214Z,14.00
2019-04-28T07:51:19.240Z,13.95
2019-04-28T07:52:28.955Z,13.94
2019-04-28T07:53:41.365Z,13.92
2019-04-28T07:54:49.467Z,13.90
2019-04-28T07:55:57.357Z,13.89
2019-04-28T07:57:05.329Z,13.87
2019-04-28T07:58:13.887Z,13.87
2019-04-28T07:59:22.365Z,13.88
2019-04-28T08:00:31.711Z,13.86
2019-04-28T08:01:39.894Z,13.84
2019-04-28T08:02:48.173Z,13.84
2019-04-28T08:03:57.550Z,13.83
2019-04-28T08:05:07.570Z,13.83
2019-04-28T08:06:15.618Z,13.80
2019-04-28T08:07:23.552Z,13.82
2019-04-28T08:08:31.973Z,13.79
2019-04-28T08:09:39.871Z,13.79
2019-04-28T08:10:47.955Z,13.77
2019-04-28T08:11:56.037Z,13.77
2019-04-28T08:13:03.943Z,13.74
2019-04-28T08:14:12.101Z,13.77
2019-04-28T08:15:20.210Z,13.76
2019-04-28T08:16:28.447Z,13.77
2019-04-28T08:17:36.488Z,13.76
2019-04-28T08:18:44.835Z,13.74
2019-04-28T08:19:53.141Z,13.70
2019-04-28T08:21:01.185Z,13.68
2019-04-28T08:22:09.331Z,13.73
2019-04-28T08:23:17.424Z,13.70
2019-04-28T08:24:25.632Z,13.70
2019-04-28T08:25:34.150Z,13.69
2019-04-28T08:26:42.433Z,13.64
2019-04-28T08:27:50.734Z,13.66
2019-04-28T08:28:58.901Z,13.66
2019-04-28T08:30:08.977Z,13.63
2019-04-28T08:31:18.971Z,13.62
2019-04-28T08:32:29.183Z,13.62
2019-04-28T08:33:41.360Z,13.63
2019-04-28T08:34:49.413Z,13.63
2019-04-28T08:35:57.256Z,13.64
2019-04-28T08:37:05.645Z,13.65
2019-04-28T08:38:13.792Z,13.66
2019-04-28T08:39:25.029Z,13.66
2019-04-28T08:40:31.990Z,13.64
2019-04-28T08:41:40.290Z,13.64
2019-04-28T08:42:48.662Z,13.63
2019-04-28T08:43:56.683Z,13.60
2019-04-28T08:45:08.601Z,13.61
2019-04-28T08:46:16.535Z,13.60
2019-04-28T08:47:24.567Z,13.58
2019-04-28T08:48:32.525Z,13.57
2019-04-28T08:49:40.663Z,13.56
2019-04-28T08:50:48.755Z,13.55
2019-04-28T08:51:56.659Z,13.51
2019-04-28T08:53:04.890Z,13.52
2019-04-28T08:54:12.870Z,13.52
2019-04-28T08:55:21.345Z,13.51
2019-04-28T08:56:29.460Z,13.50
2019-04-28T08:57:37.758Z,13.51
2019-04-28T08:58:45.835Z,13.53
2019-04-28T08:59:54.237Z,13.48
2019-04-28T09:01:02.389Z,13.49
2019-04-28T09:02:10.455Z,13.47
2019-04-28T09:03:18.424Z,13.50
2019-04-28T09:04:26.626Z,13.46
2019-04-28T09:05:34.925Z,13.44
2019-04-28T09:06:42.926Z,13.47
2019-04-28T09:07:50.915Z,13.43
2019-04-28T09:08:58.756Z,13.46
2019-04-28T09:10:10.293Z,13.46
2019-04-28T09:11:18.492Z,13.48
2019-04-28T09:12:26.449Z,13.46
2019-04-28T09:13:34.879Z,13.48
2019-04-28T09:14:42.901Z,13.47
2019-04-28T09:15:50.902Z,13.48
2019-04-28T09:16:58.692Z,13.49
2019-04-28T09:18:06.860Z,13.48
2019-04-28T09:19:15.050Z,13.47
2019-04-28T09:20:23.157Z,13.47
2019-04-28T09:21:31.375Z,13.46
2019-04-28T09:22:39.556Z,13.47
2019-04-28T09:23:47.617Z,13.43
2019-04-28T09:24:55.849Z,13.41
2019-04-28T09:26:03.945Z,13.42
2019-04-28T09:27:11.910Z,13.42
2019-04-28T09:28:19.771Z,13.34
2019-04-28T09:29:28.134Z,13.37
2019-04-28T09:30:36.338Z,13.37
2019-04-28T09:31:44.398Z,13.37
2019-04-28T09:32:52.532Z,13.37
2019-04-28T09:34:00.469Z,13.39
2019-04-28T09:35:08.901Z,13.38
2019-04-28T09:36:17.112Z,13.37
2019-04-28T09:37:24.807Z,13.38
2019-04-28T09:38:32.935Z,13.37
2019-04-28T09:39:47.958Z,13.38
2019-04-28T09:40:56.123Z,13.36
2019-04-28T09:42:24.337Z,13.38
2019-04-28T09:43:33.996Z,13.39
2019-04-28T09:44:41.799Z,13.38
2019-04-28T09:45:51.272Z,13.38
2019-04-28T09:46:59.408Z,13.38
2019-04-28T09:48:07.549Z,13.33
2019-04-28T09:49:15.813Z,13.34
2019-04-28T09:50:23.977Z,13.36
2019-04-28T09:51:31.912Z,13.34
2019-04-28T09:52:40.183Z,13.33
2019-04-28T09:53:48.261Z,13.33
2019-04-28T09:54:56.310Z,13.34
2019-04-28T09:56:04.499Z,13.34
2019-04-28T09:57:12.705Z,13.33
2019-04-28T09:58:21.068Z,13.33
2019-04-28T09:59:29.308Z,13.35
2019-04-28T10:00:39.334Z,13.34
2019-04-28T10:01:47.533Z,13.33
2019-04-28T10:02:55.628Z,13.32
2019-04-28T10:04:04.016Z,13.28
2019-04-28T10:05:12.733Z,13.27
2019-04-28T10:06:20.644Z,13.28
2019-04-28T10:07:28.642Z,13.24
2019-04-28T10:08:36.894Z,13.21
2019-04-28T10:09:44.924Z,13.23
2019-04-28T10:10:53.070Z,13.22
2019-04-28T10:12:01.072Z,13.23
2019-04-28T10:13:09.123Z,13.22
2019-04-28T10:14:17.318Z,13.22
2019-04-28T10:15:25.556Z,13.21
2019-04-28T10:16:33.509Z,13.19
2019-04-28T10:17:43.624Z,13.22
2019-04-28T10:18:51.651Z,13.23
2019-04-28T10:19:59.969Z,13.24
2019-04-28T10:21:08.557Z,13.25
2019-04-28T10:22:16.644Z,13.24
2019-04-28T10:23:24.544Z,13.27
2019-04-28T10:24:32.590Z,13.28
2019-04-28T10:25:40.638Z,13.28
2019-04-28T10:26:48.789Z,13.28
2019-04-28T10:27:56.830Z,13.29
2019-04-28T10:29:05.032Z,13.28
2019-04-28T10:30:13.893Z,13.29
2019-04-28T10:31:21.852Z,13.31
2019-04-28T10:32:29.835Z,13.34
2019-04-28T10:33:39.527Z,13.35
2019-04-28T10:34:54.768Z,13.35
2019-04-28T10:35:56.901Z,13.34
2019-04-28T10:37:04.987Z,13.35
2019-04-28T10:38:13.099Z,13.38
2019-04-28T10:39:25.682Z,13.42
2019-04-28T10:40:41.106Z,13.45
2019-04-28T10:41:49.174Z,13.45
2019-04-28T10:42:57.207Z,13.48
2019-04-28T10:44:05.285Z,13.49
2019-04-28T10:45:20.968Z,13.49
2019-04-28T10:46:28.946Z,13.49
2019-04-28T10:47:37.337Z,13.50
2019-04-28T10:48:45.919Z,13.50
2019-04-28T10:49:54.117Z,13.50
2019-04-28T10:51:02.087Z,13.51
2019-04-28T10:52:10.117Z,13.52
2019-04-28T10:53:18.396Z,13.51
2019-04-28T10:54:26.719Z,13.55
2019-04-28T10:55:34.812Z,13.57
2019-04-28T10:56:43.084Z,13.59
2019-04-28T10:57:51.319Z,13.62
2019-04-28T10:59:00.049Z,13.65
2019-04-28T11:00:09.692Z,13.65
2019-04-28T11:01:17.460Z,13.65
2019-04-28T11:02:25.443Z,13.65
2019-04-28T11:03:33.502Z,13.62
2019-04-28T11:04:43.271Z,13.62
2019-04-28T11:05:51.670Z,13.63
2019-04-28T11:06:59.771Z,13.62
2019-04-28T11:08:09.699Z,13.62
2019-04-28T11:09:30.407Z,13.63
2019-04-28T11:10:32.447Z,13.62
2019-04-28T11:11:40.479Z,13.64
2019-04-28T11:12:48.530Z,13.64
2019-04-28T11:13:56.768Z,13.64
2019-04-28T11:15:09.121Z,13.64
2019-04-28T11:16:18.118Z,13.66
2019-04-28T11:17:26.967Z,13.69
2019-04-28T11:18:34.852Z,13.72
2019-04-28T11:19:42.680Z,13.78
2019-04-28T11:20:51.198Z,13.78
2019-04-28T11:21:58.981Z,13.82
2019-04-28T11:23:07.242Z,13.85
2019-04-28T11:24:15.151Z,13.87
2019-04-28T11:25:23.453Z,13.90
2019-04-28T11:26:31.655Z,13.89
2019-04-28T11:27:39.809Z,13.91
2019-04-28T11:28:47.853Z,13.93
2019-04-28T11:29:55.942Z,13.95
2019-04-28T11:31:04.256Z,13.97
2019-04-28T11:32:12.665Z,13.98
2019-04-28T11:33:35.808Z,14.00
2019-04-28T11:34:49.520Z,14.00
2019-04-28T11:35:57.742Z,14.01
2019-04-28T11:37:05.672Z,14.02
2019-04-28T11:38:13.826Z,14.00
2019-04-28T11:39:23.329Z,14.01
2019-04-28T11:40:31.478Z,13.99
2019-04-28T11:41:39.736Z,13.98
2019-04-28T11:42:47.720Z,13.96
2019-04-28T11:43:55.639Z,13.90
2019-04-28T11:45:04.856Z,13.93
2019-04-28T11:46:14.404Z,13.93
2019-04-28T11:47:23.360Z,13.92
2019-04-28T11:48:31.518Z,13.93
2019-04-28T11:49:39.599Z,13.93
2019-04-28T11:50:47.566Z,13.94
2019-04-28T11:51:55.589Z,13.91
2019-04-28T11:53:03.686Z,13.94
2019-04-28T11:54:11.734Z,13.94
2019-04-28T11:55:19.902Z,13.93
2019-04-28T11:56:40.425Z,13.91
2019-04-28T11:57:37.872Z,13.90
2019-04-28T11:58:45.916Z,13.90
2019-04-28T11:59:54.254Z,13.88
2019-04-28T12:01:02.361Z,13.88
2019-04-28T12:02:10.496Z,13.88
2019-04-28T12:03:18.729Z,13.91
2019-04-28T12:04:26.944Z,13.94
2019-04-28T12:05:39.518Z,13.97
2019-04-28T12:06:47.746Z,13.99
2019-04-28T12:07:55.823Z,14.01
2019-04-28T12:09:08.838Z,14.00
2019-04-28T12:10:24.103Z,14.01
2019-04-28T12:11:36.378Z,14.01
2019-04-28T12:13:01.482Z,14.00
2019-04-28T12:14:16.801Z,14.01
2019-04-28T12:15:44.935Z,14.00
2019-04-28T12:16:54.570Z,14.00
2019-04-28T12:18:02.365Z,14.01
2019-04-28T12:19:12.097Z,14.00
2019-04-28T12:20:21.594Z,14.01
2019-04-28T12:21:29.575Z,14.01
2019-04-28T12:22:37.496Z,14.02
2019-04-28T12:23:45.348Z,14.01
2019-04-28T12:24:53.378Z,14.02
2019-04-28T12:26:01.831Z,14.01
2019-04-28T12:27:09.860Z,14.01
2019-04-28T12:28:17.852Z,14.01
2019-04-28T12:29:25.865Z,14.03
2019-04-28T12:30:33.713Z,14.06
2019-04-28T12:31:41.811Z,14.06
2019-04-28T12:32:50.050Z,14.10
2019-04-28T12:33:58.057Z,14.08
2019-04-28T12:35:06.779Z,14.08
2019-04-28T12:36:14.754Z,14.10
2019-04-28T12:37:22.785Z,14.08
2019-04-28T12:38:30.717Z,14.08
2019-04-28T12:39:38.948Z,14.08
2019-04-28T12:40:47.005Z,14.07
2019-04-28T12:41:54.957Z,14.09
2019-04-28T12:43:03.132Z,14.08
2019-04-28T12:44:11.149Z,14.07
2019-04-28T12:45:19.632Z,14.05
2019-04-28T12:46:27.832Z,14.06
2019-04-28T12:47:35.747Z,14.06
2019-04-28T12:48:43.956Z,14.07
2019-04-28T12:49:53.628Z,14.06
2019-04-28T12:51:01.668Z,14.06
2019-04-28T12:52:10.387Z,14.07
2019-04-28T12:53:18.713Z,14.07
2019-04-28T12:54:28.621Z,14.06
2019-04-28T12:55:36.703Z,14.04
2019-04-28T12:56:44.716Z,14.01
2019-04-28T12:57:53.168Z,13.99
2019-04-28T12:59:02.983Z,13.99
2019-04-28T13:00:11.751Z,13.99
2019-04-28T13:01:19.543Z,13.97
2019-04-28T13:02:31.978Z,13.98
2019-04-28T13:03:39.758Z,13.97
2019-04-28T13:04:52.387Z,13.99
2019-04-28T13:06:05.558Z,13.99
2019-04-28T13:07:12.141Z,14.01
2019-04-28T13:08:20.102Z,14.04
2019-04-28T13:09:28.185Z,14.06
2019-04-28T13:10:36.343Z,14.08
2019-04-28T13:11:44.257Z,14.10
2019-04-28T13:12:52.678Z,14.11
2019-04-28T13:14:00.743Z,14.11
2019-04-28T13:15:09.130Z,14.11
2019-04-28T13:16:17.294Z,14.12
2019-04-28T13:17:25.236Z,14.13
2019-04-28T13:18:33.567Z,14.13
2019-04-28T13:19:41.589Z,14.14
2019-04-28T13:20:49.593Z,14.16
2019-04-28T13:21:57.886Z,14.18
2019-04-28T13:23:06.052Z,14.19
2019-04-28T13:24:14.182Z,14.20
2019-04-28T13:25:22.287Z,14.22
2019-04-28T13:26:30.613Z,14.25
2019-04-28T13:27:38.574Z,14.26
2019-04-28T13:28:46.733Z,14.28
2019-04-28T13:29:54.852Z,14.29
2019-04-28T13:31:03.075Z,14.31
2019-04-28T13:32:11.061Z,14.31
2019-04-28T13:33:19.348Z,14.33
2019-04-28T13:34:29.132Z,14.34
2019-04-28T13:35:37.413Z,14.34
2019-04-28T13:36:45.274Z,14.37
2019-04-28T13:37:53.531Z,14.39
2019-04-28T13:39:03.230Z,14.38
2019-04-28T13:40:13.067Z,14.34
2019-04-28T13:41:21.471Z,14.32
2019-04-28T13:42:29.577Z,14.33
2019-04-28T13:43:37.698Z,14.33
2019-04-28T13:44:53.475Z,14.29
2019-04-28T13:46:01.541Z,14.27
2019-04-28T13:47:09.733Z,14.23
2019-04-28T13:48:18.001Z,14.23
2019-04-28T13:49:27.656Z,14.23
2019-04-28T13:50:41.647Z,14.21
2019-04-28T13:51:49.604Z,14.21
2019-04-28T13:52:58.343Z,14.18
2019-04-28T13:54:08.081Z,14.13
2019-04-28T13:55:31.061Z,14.11
2019-04-28T13:56:39.103Z,14.11
2019-04-28T13:57:47.386Z,14.07
2019-04-28T13:58:56.881Z,14.06
2019-04-28T14:00:09.806Z,14.03
2019-04-28T14:01:28.562Z,14.02
2019-04-28T14:02:54.515Z,13.96
2019-04-28T14:04:02.257Z,13.97
2019-04-28T14:05:19.276Z,13.95
2019-04-28T14:06:29.209Z,13.93
2019-04-28T14:07:37.359Z,13.93
2019-04-28T14:08:45.305Z,13.92
2019-04-28T14:09:53.082Z,13.92
2019-04-28T14:11:01.306Z,13.92
2019-04-28T14:12:09.085Z,13.93
2019-04-28T14:13:17.072Z,13.91
2019-04-28T14:14:25.555Z,13.89
2019-04-28T14:15:33.912Z,13.89
2019-04-28T14:16:42.112Z,13.89
2019-04-28T14:17:50.017Z,13.88
2019-04-28T14:18:57.806Z,13.91
2019-04-28T14:20:08.231Z,13.91
2019-04-28T14:21:16.867Z,13.90
2019-04-28T14:22:24.968Z,13.89
2019-04-28T14:23:33.345Z,13.88
2019-04-28T14:24:41.473Z,13.88
2019-04-28T14:25:49.628Z,13.89
2019-04-28T14:26:57.736Z,13.89
2019-04-28T14:28:06.144Z,13.90
2019-04-28T14:29:14.060Z,13.90
2019-04-28T14:30:22.178Z,13.92
2019-04-28T14:31:30.228Z,13.92
2019-04-28T14:32:38.357Z,13.93
2019-04-28T14:33:46.416Z,13.95
2019-04-28T14:34:54.771Z,13.96
2019-04-28T14:36:03.049Z,13.98
2019-04-28T14:37:11.279Z,14.00
2019-04-28T14:38:19.247Z,14.01
2019-04-28T14:39:27.088Z,14.01
2019-04-28T14:40:35.679Z,14.00
2019-04-28T14:41:44.147Z,14.00
2019-04-28T14:42:52.125Z,14.01
2019-04-28T14:44:00.319Z,14.02
2019-04-28T14:45:09.999Z,14.01
2019-04-28T14:46:18.139Z,14.02
2019-04-28T14:47:26.542Z,14.00
2019-04-28T14:48:34.646Z,14.02
2019-04-28T14:49:42.826Z,14.01
2019-04-28T14:50:51.150Z,14.03
2019-04-28T14:51:59.435Z,14.03
2019-04-28T14:53:08.841Z,14.03
2019-04-28T14:54:16.963Z,14.03